sensor_id;sensor_type;location;lat;lon;timestamp;temperature;humidity
24382;DHT22;12502;50.678;7.172;2023-06-24T00:03:49;18.00;99.90
24382;DHT22;12502;50.678;7.172;2023-06-24T00:08:54;18.00;99.90
24382;DHT22;12502;50.678;7.172;2023-06-24T00:14:02;18.00;99.90
24382;DHT22;12502;50.678;7.172;2023-06-24T00:19:03;17.90;99.90
24382;DHT22;12502;50.678;7.172;2023-06-24T00:24:05;17.90;99.90
24382;DHT22;12502;50.678;7.172;2023-06-24T00:29:06;17.90;99.90
24382;DHT22;12502;50.678;7.172;2023-06-24T00:34:08;17.90;99.90
24382;DHT22;12502;50.678;7.172;2023-06-24T00:39:10;17.70;99.90
24382;DHT22;12502;50.678;7.172;2023-06-24T00:44:12;17.70;99.90
24382;DHT22;12502;50.678;7.172;2023-06-24T00:49:13;17.70;99.90
24382;DHT22;12502;50.678;7.172;2023-06-24T00:54:16;17.40;99.90
24382;DHT22;12502;50.678;7.172;2023-06-24T00:59:18;17.50;99.90
24382;DHT22;12502;50.678;7.172;2023-06-24T01:04:20;17.60;99.90
24382;DHT22;12502;50.678;7.172;2023-06-24T01:09:21;17.60;99.90
24382;DHT22;12502;50.678;7.172;2023-06-24T01:14:23;17.50;99.90
24382;DHT22;12502;50.678;7.172;2023-06-24T01:29:36;17.40;99.90
24382;DHT22;12502;50.678;7.172;2023-06-24T01:34:48;17.40;99.90
24382;DHT22;12502;50.678;7.172;2023-06-24T01:45:14;17.10;99.90
24382;DHT22;12502;50.678;7.172;2023-06-24T01:50:16;17.20;99.90
24382;DHT22;12502;50.678;7.172;2023-06-24T01:55:21;17.10;99.90
24382;DHT22;12502;50.678;7.172;2023-06-24T02:00:25;17.00;99.90
24382;DHT22;12502;50.678;7.172;2023-06-24T02:05:27;17.10;99.90
24382;DHT22;12502;50.678;7.172;2023-06-24T02:10:29;17.10;99.90
24382;DHT22;12502;50.678;7.172;2023-06-24T02:15:31;17.00;99.90
24382;DHT22;12502;50.678;7.172;2023-06-24T02:20:33;17.00;99.90
24382;DHT22;12502;50.678;7.172;2023-06-24T02:25:35;16.90;99.90
24382;DHT22;12502;50.678;7.172;2023-06-24T02:30:41;17.00;99.90
24382;DHT22;12502;50.678;7.172;2023-06-24T02:35:43;16.90;99.90
24382;DHT22;12502;50.678;7.172;2023-06-24T02:40:46;16.80;99.90
24382;DHT22;12502;50.678;7.172;2023-06-24T02:45:48;16.80;99.90
24382;DHT22;12502;50.678;7.172;2023-06-24T02:50:51;16.90;99.90
24382;DHT22;12502;50.678;7.172;2023-06-24T02:55:54;16.80;99.90
24382;DHT22;12502;50.678;7.172;2023-06-24T03:00:56;16.80;99.90
24382;DHT22;12502;50.678;7.172;2023-06-24T03:06:00;16.90;99.90
24382;DHT22;12502;50.678;7.172;2023-06-24T03:11:04;16.60;99.90
24382;DHT22;12502;50.678;7.172;2023-06-24T03:16:05;16.60;99.90
24382;DHT22;12502;50.678;7.172;2023-06-24T03:21:07;16.70;99.90
24382;DHT22;12502;50.678;7.172;2023-06-24T03:26:09;16.70;99.90
24382;DHT22;12502;50.678;7.172;2023-06-24T03:31:11;16.50;99.90
24382;DHT22;12502;50.678;7.172;2023-06-24T03:36:12;16.50;99.90
24382;DHT22;12502;50.678;7.172;2023-06-24T03:41:14;16.50;99.90
24382;DHT22;12502;50.678;7.172;2023-06-24T03:46:16;16.50;99.90
24382;DHT22;12502;50.678;7.172;2023-06-24T03:51:17;16.50;99.90
24382;DHT22;12502;50.678;7.172;2023-06-24T03:56:19;16.40;99.90
24382;DHT22;12502;50.678;7.172;2023-06-24T04:01:20;16.40;99.90
24382;DHT22;12502;50.678;7.172;2023-06-24T04:06:22;16.40;99.90
24382;DHT22;12502;50.678;7.172;2023-06-24T04:11:24;16.50;99.90
24382;DHT22;12502;50.678;7.172;2023-06-24T04:16:25;16.50;99.90
24382;DHT22;12502;50.678;7.172;2023-06-24T04:21:27;16.50;99.90
24382;DHT22;12502;50.678;7.172;2023-06-24T04:26:28;16.40;99.90
24382;DHT22;12502;50.678;7.172;2023-06-24T04:31:30;16.30;99.90
24382;DHT22;12502;50.678;7.172;2023-06-24T04:36:32;16.40;99.90
24382;DHT22;12502;50.678;7.172;2023-06-24T04:41:33;16.60;99.90
24382;DHT22;12502;50.678;7.172;2023-06-24T04:46:35;16.60;99.90
24382;DHT22;12502;50.678;7.172;2023-06-24T04:51:37;16.70;99.90
24382;DHT22;12502;50.678;7.172;2023-06-24T04:56:39;16.80;99.90
24382;DHT22;12502;50.678;7.172;2023-06-24T05:01:40;16.60;99.90
24382;DHT22;12502;50.678;7.172;2023-06-24T05:06:42;16.80;99.90
24382;DHT22;12502;50.678;7.172;2023-06-24T05:11:44;16.90;99.90
24382;DHT22;12502;50.678;7.172;2023-06-24T05:16:45;16.90;99.90
24382;DHT22;12502;50.678;7.172;2023-06-24T05:21:47;17.20;99.90
24382;DHT22;12502;50.678;7.172;2023-06-24T05:26:49;17.30;99.90
24382;DHT22;12502;50.678;7.172;2023-06-24T05:31:51;17.40;99.90
24382;DHT22;12502;50.678;7.172;2023-06-24T05:36:52;17.50;99.90
24382;DHT22;12502;50.678;7.172;2023-06-24T05:41:54;17.60;99.90
24382;DHT22;12502;50.678;7.172;2023-06-24T05:46:56;17.70;99.90
24382;DHT22;12502;50.678;7.172;2023-06-24T05:51:58;17.80;99.90
24382;DHT22;12502;50.678;7.172;2023-06-24T05:56:59;18.00;99.90
24382;DHT22;12502;50.678;7.172;2023-06-24T06:02:01;18.00;99.90
24382;DHT22;12502;50.678;7.172;2023-06-24T06:07:03;18.10;99.90
24382;DHT22;12502;50.678;7.172;2023-06-24T06:12:05;18.30;99.90
24382;DHT22;12502;50.678;7.172;2023-06-24T06:17:07;18.40;99.90
24382;DHT22;12502;50.678;7.172;2023-06-24T06:22:08;18.60;99.90
24382;DHT22;12502;50.678;7.172;2023-06-24T06:27:10;18.60;99.90
24382;DHT22;12502;50.678;7.172;2023-06-24T06:32:14;18.70;99.90
24382;DHT22;12502;50.678;7.172;2023-06-24T06:37:16;18.70;99.90
24382;DHT22;12502;50.678;7.172;2023-06-24T06:42:17;19.10;99.90
24382;DHT22;12502;50.678;7.172;2023-06-24T06:47:19;19.40;99.90
24382;DHT22;12502;50.678;7.172;2023-06-24T06:52:21;19.50;99.90
24382;DHT22;12502;50.678;7.172;2023-06-24T06:57:22;19.60;99.90
24382;DHT22;12502;50.678;7.172;2023-06-24T07:02:25;19.80;99.90
24382;DHT22;12502;50.678;7.172;2023-06-24T07:07:27;19.90;99.90
24382;DHT22;12502;50.678;7.172;2023-06-24T07:12:28;20.10;99.90
24382;DHT22;12502;50.678;7.172;2023-06-24T07:17:30;20.30;99.90
24382;DHT22;12502;50.678;7.172;2023-06-24T07:22:31;20.80;99.90
24382;DHT22;12502;50.678;7.172;2023-06-24T07:27:33;21.00;99.90
24382;DHT22;12502;50.678;7.172;2023-06-24T07:32:35;21.00;99.90
24382;DHT22;12502;50.678;7.172;2023-06-24T07:37:39;21.00;99.90
24382;DHT22;12502;50.678;7.172;2023-06-24T07:42:41;21.40;99.90
24382;DHT22;12502;50.678;7.172;2023-06-24T07:47:43;21.40;99.90
24382;DHT22;12502;50.678;7.172;2023-06-24T07:52:47;21.40;99.90
24382;DHT22;12502;50.678;7.172;2023-06-24T07:57:48;21.60;99.90
24382;DHT22;12502;50.678;7.172;2023-06-24T08:02:50;22.00;99.90
24382;DHT22;12502;50.678;7.172;2023-06-24T08:07:52;21.90;99.90
24382;DHT22;12502;50.678;7.172;2023-06-24T08:12:54;22.30;99.90
24382;DHT22;12502;50.678;7.172;2023-06-24T08:17:55;22.20;99.90
24382;DHT22;12502;50.678;7.172;2023-06-24T08:22:57;22.20;99.90
24382;DHT22;12502;50.678;7.172;2023-06-24T08:27:58;22.30;99.90
24382;DHT22;12502;50.678;7.172;2023-06-24T08:33:00;22.70;99.90
24382;DHT22;12502;50.678;7.172;2023-06-24T08:38:02;22.30;99.90
24382;DHT22;12502;50.678;7.172;2023-06-24T08:43:03;22.50;99.90
24382;DHT22;12502;50.678;7.172;2023-06-24T08:48:05;22.50;99.90
24382;DHT22;12502;50.678;7.172;2023-06-24T08:53:07;22.70;99.90
24382;DHT22;12502;50.678;7.172;2023-06-24T08:58:09;23.10;99.90
24382;DHT22;12502;50.678;7.172;2023-06-24T09:03:13;22.90;99.90
24382;DHT22;12502;50.678;7.172;2023-06-24T09:08:15;23.20;99.90
24382;DHT22;12502;50.678;7.172;2023-06-24T09:13:19;23.40;99.90
24382;DHT22;12502;50.678;7.172;2023-06-24T09:18:21;23.70;99.90
24382;DHT22;12502;50.678;7.172;2023-06-24T09:23:35;23.60;99.90
24382;DHT22;12502;50.678;7.172;2023-06-24T09:28:37;23.60;99.90
24382;DHT22;12502;50.678;7.172;2023-06-24T09:33:39;23.90;99.90
24382;DHT22;12502;50.678;7.172;2023-06-24T09:38:41;24.10;99.90
24382;DHT22;12502;50.678;7.172;2023-06-24T09:43:43;24.50;99.90
24382;DHT22;12502;50.678;7.172;2023-06-24T09:48:48;24.50;99.90
24382;DHT22;12502;50.678;7.172;2023-06-24T09:53:50;24.30;99.90
24382;DHT22;12502;50.678;7.172;2023-06-24T09:58:53;24.00;99.90
24382;DHT22;12502;50.678;7.172;2023-06-24T10:03:55;24.30;99.90
24382;DHT22;12502;50.678;7.172;2023-06-24T10:08:56;24.40;99.90
24382;DHT22;12502;50.678;7.172;2023-06-24T10:13:59;24.20;99.90
24382;DHT22;12502;50.678;7.172;2023-06-24T10:19:01;24.40;99.90
24382;DHT22;12502;50.678;7.172;2023-06-24T10:24:03;24.60;99.90
24382;DHT22;12502;50.678;7.172;2023-06-24T10:44:47;25.00;99.90
24382;DHT22;12502;50.678;7.172;2023-06-24T10:49:49;25.30;99.90
24382;DHT22;12502;50.678;7.172;2023-06-24T10:54:51;25.20;99.90
24382;DHT22;12502;50.678;7.172;2023-06-24T10:59:54;25.10;99.90
24382;DHT22;12502;50.678;7.172;2023-06-24T11:04:57;25.20;99.90
24382;DHT22;12502;50.678;7.172;2023-06-24T11:10:00;25.40;99.90
24382;DHT22;12502;50.678;7.172;2023-06-24T11:15:06;25.20;99.90
24382;DHT22;12502;50.678;7.172;2023-06-24T11:20:09;25.70;99.90
24382;DHT22;12502;50.678;7.172;2023-06-24T11:25:18;25.80;99.90
24382;DHT22;12502;50.678;7.172;2023-06-24T11:30:20;26.00;99.90
24382;DHT22;12502;50.678;7.172;2023-06-24T11:35:22;26.20;99.90
24382;DHT22;12502;50.678;7.172;2023-06-24T11:40:24;25.30;99.90
24382;DHT22;12502;50.678;7.172;2023-06-24T11:45:26;25.20;99.90
24382;DHT22;12502;50.678;7.172;2023-06-24T11:50:27;25.50;99.90
24382;DHT22;12502;50.678;7.172;2023-06-24T11:55:30;25.70;99.90
24382;DHT22;12502;50.678;7.172;2023-06-24T12:00:39;26.10;99.90
24382;DHT22;12502;50.678;7.172;2023-06-24T12:05:47;26.10;99.90
24382;DHT22;12502;50.678;7.172;2023-06-24T12:10:49;26.40;99.90
24382;DHT22;12502;50.678;7.172;2023-06-24T12:15:51;26.40;99.90
24382;DHT22;12502;50.678;7.172;2023-06-24T12:20:52;26.50;99.90
24382;DHT22;12502;50.678;7.172;2023-06-24T12:25:54;26.60;99.90
24382;DHT22;12502;50.678;7.172;2023-06-24T12:30:56;26.20;99.90
24382;DHT22;12502;50.678;7.172;2023-06-24T12:35:58;26.20;99.90
24382;DHT22;12502;50.678;7.172;2023-06-24T12:40:59;26.30;99.90
24382;DHT22;12502;50.678;7.172;2023-06-24T12:46:01;26.90;99.90
24382;DHT22;12502;50.678;7.172;2023-06-24T12:51:03;26.80;99.90
24382;DHT22;12502;50.678;7.172;2023-06-24T12:56:05;27.30;99.90
24382;DHT22;12502;50.678;7.172;2023-06-24T13:01:06;27.20;99.90
24382;DHT22;12502;50.678;7.172;2023-06-24T13:06:14;27.40;99.90
24382;DHT22;12502;50.678;7.172;2023-06-24T13:11:16;27.20;99.80
24382;DHT22;12502;50.678;7.172;2023-06-24T13:16:18;27.30;99.10
24382;DHT22;12502;50.678;7.172;2023-06-24T13:21:19;26.70;99.90
24382;DHT22;12502;50.678;7.172;2023-06-24T13:26:22;26.60;99.50
24382;DHT22;12502;50.678;7.172;2023-06-24T13:31:24;26.40;99.70
24382;DHT22;12502;50.678;7.172;2023-06-24T13:36:31;26.50;99.30
24382;DHT22;12502;50.678;7.172;2023-06-24T13:41:33;26.80;99.90
24382;DHT22;12502;50.678;7.172;2023-06-24T13:46:35;27.20;99.90
24382;DHT22;12502;50.678;7.172;2023-06-24T13:51:37;27.80;99.80
24382;DHT22;12502;50.678;7.172;2023-06-24T13:56:38;27.10;99.00
24382;DHT22;12502;50.678;7.172;2023-06-24T14:01:40;26.80;99.90
24382;DHT22;12502;50.678;7.172;2023-06-24T14:06:42;26.90;99.40
24382;DHT22;12502;50.678;7.172;2023-06-24T14:11:44;27.60;98.10
24382;DHT22;12502;50.678;7.172;2023-06-24T14:16:46;27.80;96.40
24382;DHT22;12502;50.678;7.172;2023-06-24T14:21:48;27.90;96.40
24382;DHT22;12502;50.678;7.172;2023-06-24T14:26:49;28.10;95.60
24382;DHT22;12502;50.678;7.172;2023-06-24T14:31:51;28.10;95.70
24382;DHT22;12502;50.678;7.172;2023-06-24T14:36:53;28.00;94.60
24382;DHT22;12502;50.678;7.172;2023-06-24T14:41:54;27.90;95.50
24382;DHT22;12502;50.678;7.172;2023-06-24T14:46:56;27.70;95.50
24382;DHT22;12502;50.678;7.172;2023-06-24T14:51:58;27.20;95.30
24382;DHT22;12502;50.678;7.172;2023-06-24T14:56:59;27.40;95.60
24382;DHT22;12502;50.678;7.172;2023-06-24T15:02:01;28.00;94.10
24382;DHT22;12502;50.678;7.172;2023-06-24T15:07:03;28.00;94.60
24382;DHT22;12502;50.678;7.172;2023-06-24T15:12:04;28.10;93.50
24382;DHT22;12502;50.678;7.172;2023-06-24T15:17:06;28.10;93.10
24382;DHT22;12502;50.678;7.172;2023-06-24T15:22:08;28.00;92.50
24382;DHT22;12502;50.678;7.172;2023-06-24T15:27:09;27.90;92.70
24382;DHT22;12502;50.678;7.172;2023-06-24T15:32:11;28.00;92.10
24382;DHT22;12502;50.678;7.172;2023-06-24T15:37:13;28.20;92.90
24382;DHT22;12502;50.678;7.172;2023-06-24T15:42:15;28.10;92.30
24382;DHT22;12502;50.678;7.172;2023-06-24T15:47:17;28.20;91.60
24382;DHT22;12502;50.678;7.172;2023-06-24T15:52:19;27.80;91.50
24382;DHT22;12502;50.678;7.172;2023-06-24T15:57:20;28.00;91.50
24382;DHT22;12502;50.678;7.172;2023-06-24T16:02:22;28.10;91.60
24382;DHT22;12502;50.678;7.172;2023-06-24T16:07:23;28.00;90.30
24382;DHT22;12502;50.678;7.172;2023-06-24T16:12:25;27.90;90.50
24382;DHT22;12502;50.678;7.172;2023-06-24T16:17:27;27.80;90.40
24382;DHT22;12502;50.678;7.172;2023-06-24T16:22:29;27.80;89.40
24382;DHT22;12502;50.678;7.172;2023-06-24T16:27:30;27.80;90.30
24382;DHT22;12502;50.678;7.172;2023-06-24T16:32:32;27.80;90.10
24382;DHT22;12502;50.678;7.172;2023-06-24T16:37:34;27.90;88.50
24382;DHT22;12502;50.678;7.172;2023-06-24T16:42:36;27.70;88.30
24382;DHT22;12502;50.678;7.172;2023-06-24T16:47:37;27.70;88.00
24382;DHT22;12502;50.678;7.172;2023-06-24T16:52:39;27.70;87.10
24382;DHT22;12502;50.678;7.172;2023-06-24T16:57:40;27.50;88.30
24382;DHT22;12502;50.678;7.172;2023-06-24T17:02:42;27.60;88.10
24382;DHT22;12502;50.678;7.172;2023-06-24T17:07:44;27.50;87.20
24382;DHT22;12502;50.678;7.172;2023-06-24T17:12:45;27.50;86.60
24382;DHT22;12502;50.678;7.172;2023-06-24T17:17:47;27.40;86.20
24382;DHT22;12502;50.678;7.172;2023-06-24T17:22:48;27.50;86.60
24382;DHT22;12502;50.678;7.172;2023-06-24T17:27:51;27.50;87.20
24382;DHT22;12502;50.678;7.172;2023-06-24T17:32:52;27.40;90.00
24382;DHT22;12502;50.678;7.172;2023-06-24T17:37:54;27.40;88.60
24382;DHT22;12502;50.678;7.172;2023-06-24T17:42:55;27.20;90.00
24382;DHT22;12502;50.678;7.172;2023-06-24T17:47:58;27.20;90.10
24382;DHT22;12502;50.678;7.172;2023-06-24T17:53:00;27.10;88.80
24382;DHT22;12502;50.678;7.172;2023-06-24T17:58:02;27.10;89.90
24382;DHT22;12502;50.678;7.172;2023-06-24T18:03:04;27.00;90.40
24382;DHT22;12502;50.678;7.172;2023-06-24T18:08:06;26.90;91.10
24382;DHT22;12502;50.678;7.172;2023-06-24T18:13:08;26.70;91.60
24382;DHT22;12502;50.678;7.172;2023-06-24T18:18:09;26.60;92.60
24382;DHT22;12502;50.678;7.172;2023-06-24T18:23:11;26.50;93.00
24382;DHT22;12502;50.678;7.172;2023-06-24T18:28:12;26.40;91.70
24382;DHT22;12502;50.678;7.172;2023-06-24T18:33:14;26.30;92.80
24382;DHT22;12502;50.678;7.172;2023-06-24T18:38:15;26.20;92.80
24382;DHT22;12502;50.678;7.172;2023-06-24T18:43:17;26.00;93.00
24382;DHT22;12502;50.678;7.172;2023-06-24T18:48:19;26.00;93.00
24382;DHT22;12502;50.678;7.172;2023-06-24T18:53:20;25.80;93.90
24382;DHT22;12502;50.678;7.172;2023-06-24T18:58:22;25.70;94.30
24382;DHT22;12502;50.678;7.172;2023-06-24T19:03:23;25.40;95.90
24382;DHT22;12502;50.678;7.172;2023-06-24T19:08:25;25.20;96.60
24382;DHT22;12502;50.678;7.172;2023-06-24T19:13:27;25.10;96.50
24382;DHT22;12502;50.678;7.172;2023-06-24T19:18:28;24.80;98.00
24382;DHT22;12502;50.678;7.172;2023-06-24T19:23:30;24.60;98.90
24382;DHT22;12502;50.678;7.172;2023-06-24T19:28:32;24.40;99.90
24382;DHT22;12502;50.678;7.172;2023-06-24T19:33:33;24.30;99.90
24382;DHT22;12502;50.678;7.172;2023-06-24T19:38:35;24.10;99.90
24382;DHT22;12502;50.678;7.172;2023-06-24T19:43:37;23.80;99.90
24382;DHT22;12502;50.678;7.172;2023-06-24T19:48:41;23.80;99.90
24382;DHT22;12502;50.678;7.172;2023-06-24T19:53:42;23.60;99.90
24382;DHT22;12502;50.678;7.172;2023-06-24T19:58:44;23.40;99.90
24382;DHT22;12502;50.678;7.172;2023-06-24T20:03:45;23.30;99.90
24382;DHT22;12502;50.678;7.172;2023-06-24T20:08:47;23.20;99.90
24382;DHT22;12502;50.678;7.172;2023-06-24T20:13:49;23.00;99.90
24382;DHT22;12502;50.678;7.172;2023-06-24T20:18:50;22.80;99.90
24382;DHT22;12502;50.678;7.172;2023-06-24T20:23:54;22.60;99.90
24382;DHT22;12502;50.678;7.172;2023-06-24T20:28:55;22.50;99.90
24382;DHT22;12502;50.678;7.172;2023-06-24T20:33:57;22.40;99.90
24382;DHT22;12502;50.678;7.172;2023-06-24T20:38:59;22.40;99.90
24382;DHT22;12502;50.678;7.172;2023-06-24T20:44:01;22.20;99.90
24382;DHT22;12502;50.678;7.172;2023-06-24T20:49:02;22.00;99.90
24382;DHT22;12502;50.678;7.172;2023-06-24T20:54:04;21.90;99.90
24382;DHT22;12502;50.678;7.172;2023-06-24T20:59:06;21.80;99.90
24382;DHT22;12502;50.678;7.172;2023-06-24T21:04:08;21.70;99.90
24382;DHT22;12502;50.678;7.172;2023-06-24T21:09:10;21.60;99.90
24382;DHT22;12502;50.678;7.172;2023-06-24T21:14:11;21.50;99.90
24382;DHT22;12502;50.678;7.172;2023-06-24T21:19:13;21.40;99.90
24382;DHT22;12502;50.678;7.172;2023-06-24T21:24:15;21.20;99.90
24382;DHT22;12502;50.678;7.172;2023-06-24T21:29:16;21.10;99.90
24382;DHT22;12502;50.678;7.172;2023-06-24T21:34:18;21.10;99.90
24382;DHT22;12502;50.678;7.172;2023-06-24T21:39:20;21.00;99.90
24382;DHT22;12502;50.678;7.172;2023-06-24T21:44:21;20.80;99.90
24382;DHT22;12502;50.678;7.172;2023-06-24T21:49:23;20.70;99.90
24382;DHT22;12502;50.678;7.172;2023-06-24T21:54:24;20.60;99.90
24382;DHT22;12502;50.678;7.172;2023-06-24T21:59:26;20.50;99.90
24382;DHT22;12502;50.678;7.172;2023-06-24T22:04:29;20.40;99.90
24382;DHT22;12502;50.678;7.172;2023-06-24T22:09:30;20.30;99.90
24382;DHT22;12502;50.678;7.172;2023-06-24T22:14:32;20.30;99.90
24382;DHT22;12502;50.678;7.172;2023-06-24T22:19:34;20.20;99.90
24382;DHT22;12502;50.678;7.172;2023-06-24T22:24:35;20.00;99.90
24382;DHT22;12502;50.678;7.172;2023-06-24T22:29:37;20.00;99.90
24382;DHT22;12502;50.678;7.172;2023-06-24T22:34:38;19.90;99.90
24382;DHT22;12502;50.678;7.172;2023-06-24T22:39:40;19.80;99.90
24382;DHT22;12502;50.678;7.172;2023-06-24T22:44:42;19.70;99.90
24382;DHT22;12502;50.678;7.172;2023-06-24T22:49:43;19.60;99.90
24382;DHT22;12502;50.678;7.172;2023-06-24T22:54:45;19.60;99.90
24382;DHT22;12502;50.678;7.172;2023-06-24T22:59:46;19.50;99.90
24382;DHT22;12502;50.678;7.172;2023-06-24T23:04:48;19.40;99.90
24382;DHT22;12502;50.678;7.172;2023-06-24T23:09:50;19.30;99.90
24382;DHT22;12502;50.678;7.172;2023-06-24T23:14:52;19.20;99.90
24382;DHT22;12502;50.678;7.172;2023-06-24T23:19:53;19.20;99.90
24382;DHT22;12502;50.678;7.172;2023-06-24T23:24:55;19.20;99.90
24382;DHT22;12502;50.678;7.172;2023-06-24T23:29:57;19.10;99.90
24382;DHT22;12502;50.678;7.172;2023-06-24T23:35:03;19.10;99.90
24382;DHT22;12502;50.678;7.172;2023-06-24T23:40:06;19.00;99.90
24382;DHT22;12502;50.678;7.172;2023-06-24T23:45:08;19.10;99.90
24382;DHT22;12502;50.678;7.172;2023-06-24T23:50:10;19.00;99.90
24382;DHT22;12502;50.678;7.172;2023-06-24T23:55:11;19.00;99.90
